CheckWX is a tool to help pilots better visualize weather data.  It is not intended as a substitute for an official pre-flight weather briefing.

07:58:58 UTC

FAWB TAF
Wonderboom Airport
Pretoria, South Africa
TAF FAWB 200404Z 2004/2015 VRB03KT CAVOK TX25/2013Z TN02/2004Z BECMG 2013/2015 03007KT

Jun-20@
04:00 UTC

Jun-20 @ 04:00 UTC

Jun-20@
13:00 UTC

Jun-20 @ 13:00 UTC

TAF FAWB 200404Z 2004/2015 VRB03KT CAVOK TX25/2013Z TN02/2004Z
Wind
  • Variable at 3 KTS
Cloud Levels
  • No significant clouds

Jun-20@
13:00 UTC

Jun-20 @ 13:00 UTC

Jun-20@
15:00 UTC

Jun-20 @ 15:00 UTC

BECMG 2013/2015 03007KT

Becoming

Becoming Conditions expected by Thu, Jun 20, 2019 @ 15:00 UTC

Wind
  • 030° at 7 KTS
Cloud Levels
  • No significant clouds